Time;durP1;ratioP1;P1;durP2;ratioP2;P2;SDS_P1;SDS_P2;PMS_P1;PMS_P2;Temp;Humidity;BMP_temperature;BMP_pressure;BME280_temperature;BME280_humidity;BME280_pressure;Samples;Min_cycle;Max_cycle;Signal;HPM_P1;HPM_P2
2023/01/11 01:46:33;;;;;;;9.60;2.25;;;;;;;4.37;85.97;100679.69;4986193;28;20127;-63
2023/01/11 03:34:02;;;;;;;6.85;2.47;;;;;;;5.00;80.54;100519.31;4968133;28;20053;-62
2023/01/11 03:40:32;;;;;;;5.60;1.63;;;;;;;5.03;80.12;100514.81;4970056;28;19925;-63
2023/01/11 04:13:11;;;;;;;8.13;2.05;;;;;;;5.23;80.08;100498.41;4959863;28;20030;-63
2023/01/11 04:24:17;;;;;;;9.57;1.80;;;;;;;5.30;80.27;100483.34;4961224;28;20521;-61
2023/01/11 04:26:44;;;;;;;10.18;3.00;;;;;;;5.30;79.57;100480.72;4969341;28;20058;-62
2023/01/11 06:52:40;;;;;;;4.85;1.83;;;;;;;5.65;84.66;100345.28;4966295;28;20053;-63
2023/01/11 06:55:08;;;;;;;8.85;1.85;;;;;;;5.69;84.73;100341.63;4953952;28;20138;-63
2023/01/11 06:57:35;;;;;;;7.32;1.63;;;;;;;5.64;84.31;100344.44;4968340;28;20051;-63
2023/01/11 07:00:03;;;;;;;8.30;1.83;;;;;;;5.65;84.56;100355.72;4963586;28;20051;-63
2023/01/11 07:02:30;;;;;;;7.95;2.20;;;;;;;5.68;84.61;100356.44;4971249;28;20059;-64
2023/01/11 07:04:58;;;;;;;5.40;2.15;;;;;;;5.68;84.28;100363.44;4952060;28;20092;-63
2023/01/11 07:07:25;;;;;;;4.57;1.60;;;;;;;5.65;83.96;100371.41;4988352;28;20061;-64
2023/01/11 07:09:53;;;;;;;4.30;1.63;;;;;;;5.65;84.50;100360.94;4975779;28;20054;-63
2023/01/11 07:12:20;;;;;;;7.95;2.65;;;;;;;5.71;84.17;100371.97;4976212;28;20375;-64
2023/01/11 07:14:47;;;;;;;6.78;1.90;;;;;;;5.69;84.25;100363.38;4958022;28;20365;-64
2023/01/11 07:17:14;;;;;;;9.50;2.22;;;;;;;5.69;84.14;100368.59;4974534;28;20141;-63
2023/01/11 07:19:41;;;;;;;6.60;2.10;;;;;;;5.74;83.95;100365.78;4984748;28;20062;-64
2023/01/11 07:22:09;;;;;;;4.55;1.73;;;;;;;5.77;84.00;100374.34;4953958;28;20197;-63
2023/01/11 07:24:36;;;;;;;6.35;1.65;;;;;;;5.80;83.97;100376.78;4982134;28;20134;-64
2023/01/11 07:27:03;;;;;;;7.85;1.85;;;;;;;5.83;83.71;100368.00;4959465;28;20541;-63
2023/01/11 07:29:31;;;;;;;6.22;2.00;;;;;;;5.79;83.81;100377.72;4974502;28;20062;-63
2023/01/11 07:31:58;;;;;;;5.50;2.00;;;;;;;5.82;83.68;100368.91;4972161;28;22023;-64
2023/01/11 07:34:25;;;;;;;6.57;1.60;;;;;;;5.85;83.56;100379.22;4983832;28;20097;-63
2023/01/11 07:36:52;;;;;;;6.65;1.95;;;;;;;5.84;83.75;100378.38;4970744;28;20069;-64
2023/01/11 07:39:19;;;;;;;4.85;1.92;;;;;;;5.84;84.27;100380.13;4970127;28;20144;-64
2023/01/11 07:44:41;;;;;;;4.85;1.50;;;;;;;5.84;84.19;100364.47;4967672;28;20141;-62
2023/01/11 07:47:08;;;;;;;6.65;2.13;;;;;;;5.87;84.26;100369.56;4983973;28;20051;-63
2023/01/11 07:49:35;;;;;;;7.30;2.00;;;;;;;5.83;84.14;100365.38;4968412;28;20110;-63
2023/01/11 07:52:03;;;;;;;9.13;2.22;;;;;;;5.84;84.30;100372.28;4984642;28;20055;-64
2023/01/11 07:54:30;;;;;;;5.60;1.83;;;;;;;5.88;84.37;100362.56;4977251;28;20061;-64
2023/01/11 07:56:57;;;;;;;5.90;1.88;;;;;;;5.89;84.62;100365.09;4977994;28;20145;-63
2023/01/11 07:59:24;;;;;;;6.38;2.05;;;;;;;5.92;84.14;100364.16;4962544;28;20161;-64
2023/01/11 08:01:51;;;;;;;7.57;1.67;;;;;;;5.93;84.19;100371.09;4951499;28;20051;-62
2023/01/11 08:04:18;;;;;;;6.78;1.98;;;;;;;5.98;84.29;100364.72;4968686;28;21030;-63
2023/01/11 08:06:46;;;;;;;4.68;1.83;;;;;;;5.99;84.30;100368.19;4955299;28;20091;-63
2023/01/11 08:09:13;;;;;;;5.32;1.95;;;;;;;6.02;84.28;100355.00;4974944;28;20046;-63
2023/01/11 08:14:38;;;;;;;8.40;2.13;;;;;;;6.06;84.33;100352.19;4970081;28;20050;-64
2023/01/11 08:17:07;;;;;;;7.63;2.33;;;;;;;6.07;84.59;100361.72;4974842;28;20601;-64
2023/01/11 08:19:34;;;;;;;7.32;2.25;;;;;;;6.11;84.20;100354.59;4982599;28;20042;-64
2023/01/11 08:22:01;;;;;;;5.65;2.17;;;;;;;6.03;84.91;100346.25;4982560;28;20137;-63
2023/01/11 08:24:29;;;;;;;3.42;1.80;;;;;;;6.04;85.16;100350.56;4979407;28;20550;-64
2023/01/11 08:26:56;;;;;;;5.80;1.92;;;;;;;6.12;85.28;100344.97;4960782;28;20058;-64
2023/01/11 08:29:24;;;;;;;3.63;1.60;;;;;;;6.14;85.30;100353.63;4966652;28;20538;-64
2023/01/11 08:31:51;;;;;;;4.40;1.77;;;;;;;6.19;84.79;100347.25;4982155;28;20381;-61
2023/01/11 08:34:18;;;;;;;9.07;2.50;;;;;;;6.21;85.26;100342.78;4979571;28;20426;-64
2023/01/11 08:36:45;;;;;;;3.05;1.33;;;;;;;6.22;85.40;100357.59;4967939;28;20063;-63
2023/01/11 08:39:13;;;;;;;5.07;1.98;;;;;;;6.25;85.41;100346.13;4969979;28;20046;-63
2023/01/11 08:41:40;;;;;;;6.63;2.40;;;;;;;6.30;85.10;100349.38;4978255;28;20054;-63
2023/01/11 08:44:08;;;;;;;6.50;1.80;;;;;;;6.34;85.13;100350.94;4984609;28;20051;-62
2023/01/11 08:46:36;;;;;;;5.90;1.50;;;;;;;6.34;85.46;100338.69;5005991;23;20133;-65
2023/01/11 08:49:10;;;;;;;5.88;1.90;;;;;;;6.36;85.56;100336.03;5003326;28;20137;-61
2023/01/11 08:51:39;;;;;;;7.22;1.48;;;;;;;6.38;85.97;100347.25;4997288;28;20058;-63
2023/01/11 08:54:10;;;;;;;5.57;1.65;;;;;;;6.41;85.74;100352.34;4998988;28;20126;-65
2023/01/11 08:56:37;;;;;;;4.57;1.90;;;;;;;6.39;85.85;100351.56;4997468;28;20084;-63
2023/01/11 08:59:05;;;;;;;3.00;1.40;;;;;;;6.39;86.00;100354.19;5002790;28;20038;-63
2023/01/11 09:01:32;;;;;;;7.32;1.90;;;;;;;6.42;86.84;100337.50;4996949;28;20410;-62
2023/01/11 09:03:59;;;;;;;5.65;1.60;;;;;;;6.47;86.21;100335.53;5008594;28;20383;-62
2023/01/11 09:06:28;;;;;;;3.53;1.55;;;;;;;6.52;86.30;100339.63;4999683;28;20149;-63
2023/01/11 09:08:55;;;;;;;4.20;2.30;;;;;;;6.51;86.76;100340.53;5008875;28;20045;-63
2023/01/11 09:14:08;;;;;;;4.32;1.83;;;;;;;6.52;86.60;100338.78;5001752;28;20507;-61
2023/01/11 09:16:35;;;;;;;7.63;2.15;;;;;;;6.50;86.86;100340.63;4998144;28;20404;-62
2023/01/11 09:19:02;;;;;;;3.25;1.48;;;;;;;6.51;86.87;100331.84;5003714;28;20056;-60
2023/01/11 09:21:30;;;;;;;4.60;1.92;;;;;;;6.46;87.24;100337.31;5003689;28;20056;-62
2023/01/11 09:23:57;;;;;;;7.57;1.88;;;;;;;6.52;87.60;100328.31;5005356;28;20058;-62
2023/01/11 09:26:24;;;;;;;3.75;2.17;;;;;;;6.54;88.13;100331.72;4998999;28;20053;-62
2023/01/11 09:28:51;;;;;;;3.30;2.00;;;;;;;6.52;88.18;100318.69;5004592;28;20074;-62
2023/01/11 09:31:19;;;;;;;6.25;1.75;;;;;;;6.55;88.31;100323.78;5004276;28;20213;-61
2023/01/11 09:33:46;;;;;;;10.52;1.98;;;;;;;6.62;87.99;100321.75;4989981;28;20403;-61
2023/01/11 09:36:13;;;;;;;7.57;1.88;;;;;;;6.66;88.61;100327.66;4995869;28;20105;-60
2023/01/11 09:38:42;;;;;;;5.13;1.70;;;;;;;6.68;87.99;100331.06;4986316;28;20100;-63
2023/01/11 09:41:22;;;;;;;7.03;1.85;;;;;;;6.68;88.77;100325.84;4988598;28;20061;-62
2023/01/11 09:44:15;;;;;;;2.83;1.40;;;;;;;6.71;89.09;100320.44;4996568;28;20078;-63
2023/01/11 09:46:50;;;;;;;6.18;2.08;;;;;;;6.69;90.28;100327.53;4974528;28;20089;-63
2023/01/11 09:49:29;;;;;;;6.65;2.25;;;;;;;6.67;91.53;100311.06;4967982;28;20558;-62
2023/01/11 09:52:10;;;;;;;6.35;1.70;;;;;;;6.69;92.24;100309.22;4972118;28;20145;-63
2023/01/11 09:54:37;;;;;;;5.22;2.40;;;;;;;6.66;94.53;100317.19;4989679;28;20531;-62
2023/01/11 09:57:37;;;;;;;6.82;2.00;;;;;;;6.61;95.05;100304.34;4983272;28;20051;-63
2023/01/11 10:00:33;;;;;;;6.60;2.15;;;;;;;6.55;97.19;100317.72;4979168;28;20495;-62
2023/01/11 10:03:02;;;;;;;;;;;;;;;6.58;97.41;100302.75;4964153;28;20506;-62
2023/01/11 10:05:34;;;;;;;6.68;2.25;;;;;;;6.56;98.01;100309.78;4999684;28;19983;-62
2023/01/11 10:08:16;;;;;;;4.70;1.90;;;;;;;6.46;100.00;100300.69;4983288;28;20093;-62
2023/01/11 10:11:30;;;;;;;5.80;2.30;;;;;;;6.46;100.00;100297.22;4995925;28;20054;-62
2023/01/11 10:14:32;;;;;;;4.35;1.77;;;;;;;6.46;100.00;100287.63;4963789;28;20042;-61
2023/01/11 10:17:41;;;;;;;6.95;2.08;;;;;;;6.46;100.00;100286.78;4992009;28;20209;-61
2023/01/11 10:20:37;;;;;;;3.42;2.13;;;;;;;6.45;100.00;100275.47;4991845;28;21608;-59
2023/01/11 10:23:09;;;;;;;10.82;2.28;;;;;;;6.53;100.00;100282.97;4987308;28;20046;-62
2023/01/11 10:25:46;;;;;;;8.23;3.30;;;;;;;6.52;100.00;100279.47;4981784;28;20050;-62
2023/01/11 10:28:21;;;;;;;7.47;2.70;;;;;;;6.55;100.00;100262.81;4980930;28;20082;-61
2023/01/11 10:36:41;;;;;;;4.18;1.90;;;;;;;6.66;100.00;100265.72;4968280;28;20056;-63
2023/01/11 10:42:21;;;;;;;3.15;1.98;;;;;;;6.68;100.00;100263.91;4974523;28;20551;-62
2023/01/11 10:44:59;;;;;;;5.60;2.55;;;;;;;6.72;100.00;100267.22;4971233;28;20088;-63
2023/01/11 10:47:36;;;;;;;4.57;2.00;;;;;;;6.74;100.00;100254.91;4968363;28;20046;-63
2023/01/11 10:50:32;;;;;;;4.20;1.92;;;;;;;6.75;100.00;100269.66;4972596;28;20459;-62
2023/01/11 10:53:06;;;;;;;4.68;2.08;;;;;;;6.80;100.00;100262.47;4988339;28;20055;-63
2023/01/11 10:55:43;;;;;;;4.43;1.97;;;;;;;6.80;100.00;100259.84;4976327;28;20068;-62
2023/01/11 10:58:22;;;;;;;4.18;1.90;;;;;;;6.82;100.00;100256.22;4984954;28;20058;-62
2023/01/11 11:01:19;;;;;;;3.75;2.30;;;;;;;6.85;100.00;100257.84;4986938;28;20057;-62
2023/01/11 11:03:48;;;;;;;6.05;1.83;;;;;;;6.81;100.00;100251.91;4976444;28;20058;-63
2023/01/11 11:06:39;;;;;;;4.10;1.80;;;;;;;6.80;100.00;100238.91;4974748;28;20058;-63
2023/01/11 11:09:19;;;;;;;4.50;1.65;;;;;;;6.87;100.00;100245.53;4975320;28;20419;-61
2023/01/11 11:11:52;;;;;;;3.38;1.65;;;;;;;6.88;100.00;100235.91;4984929;28;20142;-62
2023/01/11 11:15:00;;;;;;;5.90;2.10;;;;;;;6.94;100.00;100233.00;4984361;28;20046;-60
2023/01/11 11:17:31;;;;;;;5.43;2.10;;;;;;;6.89;100.00;100228.00;4996818;28;20073;-63
2023/01/11 11:19:59;;;;;;;3.85;2.42;;;;;;;6.93;100.00;100229.50;4984183;28;20193;-60
2023/01/11 11:22:28;;;;;;;6.15;2.25;;;;;;;6.92;100.00;100222.59;5000487;28;20133;-63
2023/01/11 11:25:04;;;;;;;4.50;2.25;;;;;;;6.92;100.00;100225.22;4990858;28;20137;-62
2023/01/11 11:28:04;;;;;;;4.20;2.35;;;;;;;6.92;100.00;100217.34;5000943;28;20309;-62
2023/01/11 11:30:37;;;;;;;4.35;2.17;;;;;;;6.87;100.00;100219.34;4994600;28;20341;-62
2023/01/11 11:33:12;;;;;;;4.90;2.25;;;;;;;6.80;100.00;100212.75;4980168;28;20052;-63
2023/01/11 11:35:42;;;;;;;6.25;2.55;;;;;;;6.81;100.00;100220.53;5001369;28;20055;-62
2023/01/11 11:38:28;;;;;;;4.05;2.20;;;;;;;6.87;100.00;100218.50;4983133;28;20061;-62
2023/01/11 11:41:04;;;;;;;5.28;2.38;;;;;;;6.85;100.00;100211.59;4996564;28;20078;-62
2023/01/11 11:43:37;;;;;;;3.90;2.50;;;;;;;6.84;100.00;100209.03;4989598;28;20058;-62
2023/01/11 11:46:14;;;;;;;3.47;2.00;;;;;;;6.80;100.00;100207.53;4975145;28;20414;-61
2023/01/11 11:49:14;;;;;;;4.25;2.25;;;;;;;6.80;100.00;100203.13;4995313;28;20054;-64
2023/01/11 11:51:44;;;;;;;3.95;2.30;;;;;;;6.83;100.00;100207.34;4969418;28;20058;-63
2023/01/11 11:54:42;;;;;;;4.88;2.78;;;;;;;6.90;100.00;100203.50;4982587;28;20058;-62
2023/01/11 11:57:19;;;;;;;4.65;2.20;;;;;;;6.94;100.00;100202.44;4958254;28;20046;-62
2023/01/11 11:59:49;;;;;;;6.57;3.00;;;;;;;6.97;100.00;100201.41;5001609;28;20054;-61
2023/01/11 12:02:25;;;;;;;4.38;2.35;;;;;;;7.01;100.00;100197.72;4974071;28;20050;-62
2023/01/11 12:04:56;;;;;;;5.20;2.13;;;;;;;6.95;100.00;100188.44;4988575;28;20078;-63
2023/01/11 12:07:36;;;;;;;8.00;2.45;;;;;;;6.97;100.00;100198.81;4990710;28;20046;-63
2023/01/11 12:10:22;;;;;;;3.45;1.92;;;;;;;6.92;100.00;100185.13;4986993;28;20042;-63
2023/01/11 12:13:00;;;;;;;4.35;2.10;;;;;;;6.94;100.00;100178.06;4979399;28;20169;-62
2023/01/11 12:15:29;;;;;;;4.22;2.47;;;;;;;6.97;100.00;100178.72;4976050;28;20546;-62
2023/01/11 12:18:21;;;;;;;5.93;2.67;;;;;;;6.97;100.00;100172.63;4991303;28;20047;-63
2023/01/11 12:20:48;;;;;;;4.00;2.38;;;;;;;6.97;100.00;100165.63;4981990;28;20085;-60
2023/01/11 12:23:22;;;;;;;5.68;2.30;;;;;;;7.03;100.00;100174.97;4991824;28;20054;-62
2023/01/11 12:26:08;;;;;;;3.67;2.35;;;;;;;7.06;100.00;100164.31;4986750;28;20086;-63
2023/01/11 12:29:12;;;;;;;4.57;2.47;;;;;;;7.15;100.00;100161.22;4986771;28;20082;-63
2023/01/11 12:32:09;;;;;;;5.93;2.58;;;;;;;7.12;100.00;100158.78;4988708;28;20141;-63
2023/01/11 12:34:51;;;;;;;3.05;2.38;;;;;;;7.16;100.00;100162.06;4969158;28;20084;-62
2023/01/11 12:37:24;;;;;;;7.82;2.92;;;;;;;7.17;100.00;100155.91;4982821;28;20383;-63
2023/01/11 12:39:59;;;;;;;5.22;2.60;;;;;;;7.20;100.00;100160.97;4995493;28;20129;-63
2023/01/11 12:42:51;;;;;;;5.47;2.97;;;;;;;7.18;100.00;100162.84;5004526;28;20530;-62
2023/01/11 12:45:24;;;;;;;3.13;2.05;;;;;;;7.19;100.00;100164.53;4997256;28;20116;-63
2023/01/11 12:48:06;;;;;;;5.95;2.15;;;;;;;7.24;100.00;100162.50;5004409;28;20145;-63
2023/01/11 12:50:45;;;;;;;3.65;2.20;;;;;;;7.30;100.00;100152.56;4986733;28;20046;-63
2023/01/11 12:53:29;;;;;;;4.13;2.00;;;;;;;7.30;100.00;100149.97;4996745;28;20059;-63
2023/01/11 12:56:22;;;;;;;3.60;2.30;;;;;;;7.31;100.00;100151.63;4979491;28;20054;-62
2023/01/11 12:59:15;;;;;;;4.35;1.85;;;;;;;7.31;100.00;100145.56;4998495;28;20205;-63
2023/01/11 13:01:53;;;;;;;2.80;2.08;;;;;;;7.28;100.00;100140.47;5003285;28;20060;-62
2023/01/11 13:04:41;;;;;;;6.25;2.42;;;;;;;7.30;100.00;100131.63;5006459;28;20044;-62
2023/01/11 13:07:50;;;;;;;3.45;1.80;;;;;;;7.33;100.00;100130.59;4996990;28;20510;-63
2023/01/11 13:10:29;;;;;;;2.60;1.63;;;;;;;7.34;100.00;100137.56;4966979;28;20122;-62
2023/01/11 13:13:06;;;;;;;5.03;2.20;;;;;;;7.34;100.00;100133.16;5000576;28;20456;-62
2023/01/11 13:15:57;;;;;;;2.92;1.77;;;;;;;7.38;100.00;100135.59;4993318;28;20058;-62
2023/01/11 13:18:31;;;;;;;4.70;2.35;;;;;;;7.41;100.00;100127.59;4992275;28;20068;-63
2023/01/11 13:21:08;;;;;;;4.57;1.83;;;;;;;7.41;100.00;100132.81;4983032;28;20068;-63
2023/01/11 13:23:40;;;;;;;4.55;2.30;;;;;;;7.42;100.00;100142.34;4985112;28;20661;-63
2023/01/11 13:26:20;;;;;;;4.38;2.10;;;;;;;7.43;100.00;100141.44;4991532;28;20502;-63
2023/01/11 13:28:55;;;;;;;2.65;2.20;;;;;;;7.39;100.00;100132.06;5001259;28;20050;-63
2023/01/11 13:31:23;;;;;;;4.13;2.45;;;;;;;7.38;100.00;100141.66;4988238;28;20045;-64
2023/01/11 13:33:56;;;;;;;6.47;3.10;;;;;;;7.34;100.00;100140.16;5002359;28;20072;-61
2023/01/11 13:36:28;;;;;;;5.43;2.28;;;;;;;7.34;100.00;100142.78;4985125;28;20137;-63
2023/01/11 13:39:19;;;;;;;5.43;2.45;;;;;;;7.33;100.00;100148.94;4976703;28;20624;-62
2023/01/11 13:41:50;;;;;;;4.43;2.22;;;;;;;7.37;100.00;100140.00;5005129;28;20045;-62
2023/01/11 13:44:26;;;;;;;5.05;2.22;;;;;;;7.40;100.00;100149.47;4993000;28;20048;-62
2023/01/11 13:47:05;;;;;;;5.07;2.40;;;;;;;7.41;100.00;100149.38;4985383;28;20129;-63
2023/01/11 13:49:58;;;;;;;4.68;2.53;;;;;;;7.42;100.00;100144.97;4984059;28;20050;-62
2023/01/11 13:52:28;;;;;;;4.22;2.05;;;;;;;7.43;100.00;100149.28;4980365;28;20050;-63
2023/01/11 13:55:02;;;;;;;3.33;1.70;;;;;;;7.45;100.00;100137.81;5007986;28;20046;-63
2023/01/11 13:58:09;;;;;;;4.43;1.98;;;;;;;7.52;100.00;100143.53;4981935;28;20427;-64
2023/01/11 14:00:56;;;;;;;5.32;2.15;;;;;;;7.55;100.00;100141.63;4987652;28;20143;-64
2023/01/11 14:03:29;;;;;;;4.00;2.15;;;;;;;7.54;100.00;100145.16;4976951;28;20078;-65
2023/01/11 14:06:24;;;;;;;1.85;1.52;;;;;;;7.58;100.00;100146.69;4998751;28;20089;-65
2023/01/11 14:09:06;;;;;;;2.42;1.77;;;;;;;7.60;100.00;100147.44;4988017;28;20407;-65
2023/01/11 14:11:43;;;;;;;3.88;2.03;;;;;;;7.64;100.00;100147.28;4971602;28;20509;-64
2023/01/11 14:14:25;;;;;;;2.08;1.55;;;;;;;7.67;100.00;100155.84;4974581;28;20042;-64
2023/01/11 14:17:17;;;;;;;2.90;1.90;;;;;;;7.67;100.00;100155.00;4978802;28;20085;-63
2023/01/11 14:19:52;;;;;;;6.10;2.38;;;;;;;7.67;100.00;100150.59;4987308;28;20153;-64
2023/01/11 14:22:28;;;;;;;2.85;2.13;;;;;;;7.71;100.00;100151.28;4983347;28;20076;-63
2023/01/11 14:25:00;;;;;;;3.10;2.20;;;;;;;7.75;100.00;100150.19;5000882;28;20169;-61
2023/01/11 14:27:29;;;;;;;4.68;2.40;;;;;;;7.76;100.00;100154.50;5004514;28;20598;-62
2023/01/11 14:30:05;;;;;;;3.70;2.03;;;;;;;7.79;100.00;100152.56;4990377;28;20058;-63
2023/01/11 14:32:52;;;;;;;5.03;2.35;;;;;;;7.80;100.00;100150.78;4986627;28;20085;-63
2023/01/11 14:35:39;;;;;;;3.65;2.08;;;;;;;7.82;100.00;100147.13;4988511;28;20049;-63
2023/01/11 14:38:31;;;;;;;4.03;2.45;;;;;;;7.83;100.00;100166.31;4991971;28;20046;-61
2023/01/11 14:41:35;;;;;;;2.92;1.70;;;;;;;7.86;100.00;100159.13;4992935;28;20132;-62
2023/01/11 14:44:37;;;;;;;5.38;2.10;;;;;;;7.80;100.00;100156.84;4995324;28;20144;-64
2023/01/11 14:47:20;;;;;;;2.13;1.85;;;;;;;7.77;100.00;100162.25;4988985;28;20079;-63
2023/01/11 14:50:23;;;;;;;2.67;1.63;;;;;;;7.82;100.00;100162.00;5000944;28;20722;-63
2023/01/11 14:52:51;;;;;;;3.08;1.63;;;;;;;7.83;100.00;100161.06;4993479;28;20093;-62
2023/01/11 14:55:31;;;;;;;3.58;1.83;;;;;;;7.81;100.00;100170.81;4977634;28;20144;-64
2023/01/11 16:09:08;;;;;;;4.47;2.45;;;;;;;7.99;100.00;100226.63;5000690;28;20069;-62
2023/01/11 16:36:47;;;;;;;3.55;2.28;;;;;;;8.19;100.00;100252.56;5000177;28;20548;-65
2023/01/11 16:39:20;;;;;;;4.30;1.83;;;;;;;8.22;100.00;100262.91;4978204;28;20058;-64
2023/01/11 16:41:55;;;;;;;4.32;1.80;;;;;;;8.24;100.00;100265.44;4967656;28;20173;-62
2023/01/11 16:44:46;;;;;;;2.10;1.85;;;;;;;8.23;100.00;100271.59;4971082;28;20053;-65
2023/01/11 16:47:16;;;;;;;3.58;2.30;;;;;;;8.24;100.00;100275.91;4990672;28;20145;-61
2023/01/11 16:49:48;;;;;;;3.92;2.30;;;;;;;8.29;100.00;100276.53;4992043;28;20077;-65
2023/01/11 16:52:27;;;;;;;7.03;1.92;;;;;;;8.29;100.00;100290.50;4989651;28;20061;-65
2023/01/11 16:54:55;;;;;;;2.88;2.08;;;;;;;8.29;100.00;100285.25;4985732;28;20085;-63
2023/01/11 16:57:30;;;;;;;3.70;2.47;;;;;;;8.32;100.00;100292.91;4979592;28;20077;-64
2023/01/11 17:00:04;;;;;;;2.42;1.73;;;;;;;8.31;100.00;100298.25;4986005;28;20129;-63
2023/01/11 17:02:38;;;;;;;2.33;2.00;;;;;;;8.33;100.00;100296.38;4982947;28;20130;-65
2023/01/11 17:05:17;;;;;;;3.22;2.47;;;;;;;8.37;100.00;100300.56;4992503;28;20518;-64
2023/01/11 17:07:44;;;;;;;3.22;2.45;;;;;;;8.34;100.00;100300.72;4992796;28;20078;-64
2023/01/11 17:10:29;;;;;;;3.33;2.47;;;;;;;8.33;100.00;100297.25;4984097;28;20052;-65
2023/01/11 17:13:50;;;;;;;4.05;2.60;;;;;;;8.31;100.00;100304.34;4999209;28;20566;-61
2023/01/11 17:16:08;;;;;;;3.53;2.88;;;;;;;8.35;100.00;100295.38;4991498;28;20111;-63
2023/01/11 17:18:39;;;;;;;4.00;2.50;;;;;;;8.35;100.00;100307.66;4992255;28;20057;-63
2023/01/11 17:21:17;;;;;;;3.85;3.10;;;;;;;8.35;100.00;100311.13;4983559;28;20713;-63
2023/01/11 17:23:46;;;;;;;5.03;2.85;;;;;;;8.33;100.00;100314.75;4977396;28;20054;-64
2023/01/11 17:26:16;;;;;;;5.25;2.83;;;;;;;8.33;100.00;100306.88;4978051;28;20046;-61
2023/01/11 17:28:45;;;;;;;3.90;3.00;;;;;;;8.35;100.00;100310.28;4977434;28;20530;-63
2023/01/11 17:31:24;;;;;;;3.40;2.80;;;;;;;8.37;100.00;100308.44;4984721;28;20452;-60
2023/01/11 17:34:15;;;;;;;4.03;3.28;;;;;;;8.41;100.00;100315.22;4977828;28;20089;-63
2023/01/11 17:36:43;;;;;;;4.15;3.05;;;;;;;8.39;100.00;100314.47;4986851;28;20141;-62
2023/01/11 17:39:31;;;;;;;4.68;3.25;;;;;;;8.39;100.00;100314.47;5000584;28;20053;-63
2023/01/11 18:10:48;;;;;;;6.38;4.40;;;;;;;8.43;100.00;100355.34;4984203;28;20061;-65
2023/01/11 20:30:58;;;;;;;15.65;6.10;;;;;;;7.73;100.00;100488.25;4983825;28;20527;-64
2023/01/11 20:51:31;;;;;;;11.50;4.80;;;;;;;7.59;100.00;100512.50;4986599;28;20177;-64
2023/01/11 21:30:23;;;;;;;13.48;4.35;;;;;;;7.32;100.00;100498.13;4988142;28;22598;-64
2023/01/11 21:50:30;;;;;;;17.52;5.25;;;;;;;7.13;100.00;100499.91;4984632;28;20053;-63
2023/01/11 21:52:58;;;;;;;17.45;6.18;;;;;;;7.12;100.00;100500.84;4986285;28;20591;-63
2023/01/11 21:55:25;;;;;;;16.30;5.30;;;;;;;7.16;100.00;100515.47;4983175;28;20073;-65
2023/01/11 21:57:52;;;;;;;16.20;6.32;;;;;;;7.13;100.00;100513.84;4989056;28;20423;-63
2023/01/11 22:00:19;;;;;;;16.55;5.80;;;;;;;7.07;100.00;100516.75;4985773;28;20149;-63
2023/01/11 22:07:00;;;;;;;18.65;5.60;;;;;;;7.04;100.00;100517.75;4988426;28;20129;-61
2023/01/11 22:09:27;;;;;;;17.88;7.20;;;;;;;7.01;100.00;100525.72;4987745;28;20055;-63
2023/01/11 22:11:54;;;;;;;20.50;6.20;;;;;;;7.00;100.00;100517.97;4985334;28;20459;-63
2023/01/11 22:14:22;;;;;;;19.17;6.32;;;;;;;7.00;100.00;100523.19;4988490;28;20053;-63
2023/01/11 22:16:49;;;;;;;17.45;6.53;;;;;;;6.99;100.00;100522.34;4987257;28;20570;-63
2023/01/11 22:23:35;;;;;;;13.55;6.00;;;;;;;6.93;100.00;100511.28;4983039;28;20042;-60
2023/01/11 22:26:08;;;;;;;15.02;6.00;;;;;;;6.91;100.00;100507.91;4985533;28;20422;-61
2023/01/11 22:42:16;;;;;;;16.90;6.22;;;;;;;6.82;100.00;100514.41;4987217;28;20053;-65
2023/01/11 22:44:43;;;;;;;17.77;5.68;;;;;;;6.79;100.00;100514.53;4986291;28;20129;-63
2023/01/11 22:47:10;;;;;;;10.82;5.10;;;;;;;6.74;100.00;100517.34;4989746;28;20423;-63
